Jennerstown, PA (15547)

11:55 PM EST on February 06, 2016 (GMT -0500)
APRSWXNET | | Change Station
CLOSE
Current Station
Personal Weather Station
Location: Sipesville, PA
Elevation: 1970 ft
Nearby Weather Stations

Elev 1970 ft 40.12 °N, 79.10 °W | Updated 42 minutes ago

Clear
Clear
27 °F
Feels Like 27 °F
N
0
Wind Variable Wind from WSW
Gusts 3.0 mph

Today
High -- | Low -- °F
--% Chance of Precip.
Yesterday
High -- | Low -- °F
Precip. -- in
Pressure 30.22 in
Visibility 10.0 miles
Clouds Clear
Windchill 27 °F
Dew Point 19 °F
Humidity 70%
Rainfall in
Snow Depth Not available.
7:20 AM 5:40 PM
Waning Crescent, 3% visible
METAR KJST 070354Z AUTO 25004KT 10SM CLR M01/M11 A3015 RMK AO2 SLP234 T10111111
Pressure 30.22 in
Visibility 10.0 miles
Clouds Clear
Windchill 27 °F
Dew Point 19 °F
Humidity 70%
Rainfall in
Snow Depth Not available.
7:20 AM 5:40 PM
Waning Crescent, 3% visible
METAR KJST 070354Z AUTO 25004KT 10SM CLR M01/M11 A3015 RMK AO2 SLP234 T10111111

10-Day Weather Forecast

Almanac

Astronomy

Feb. 06, 2016 Rise Set
Actual Time
Civil Twilight
Nautical Twilight
Astronomical Twilight
Moon
Length of Visible Light
Length of Day
Tomorrow will be .
, % of the Moon is Illuminated

Today's Extremes

State Highs State Lows

Community

WunderPhotos

Upload Photos

1,891,157 photos uploaded!

WunderBlog® & News

Nearby

Air Quality

  Air Quality AQ Index Pollutant
Not available.

Snow Depth

Station Depth Elevation

Earthquake Activity

City Distance Mag. Time & Date
Minimum magnitude displayed is 2.5.

Coastal Water Temperatures

Place Temperature

Stations

Nearby Weather Stations

Station Location Temp. Windchill Dew Point Humidity Wind Precip. Elev Updated Type
                   

Watches & Warnings

There are currently no watches in effect.